Amherst, Maine
Current Conditions -  °F | °C
As of 9:15 AM on Thursday 27 Nov 2014 (Local Time) from KBHB Reporting Station
Overcast Overcast  
Wind Chill: 21°   Ceiling: 1700
Heat Index: 30°   Visibility: 10mi
Dew Point: 30°   Wind: 10mph
Humidity: 100%   Direction: 340°NNW
Pressure: 29.77"   Gusts: 21mph
Location:  44.6651°N, 68.3944°W
Report Text: KBHB 271415Z AUTO 34009G18KT 10SM BKN017 OVC022 M01/M01 A2977 RMK AO1
Loading
Personal Weather Stations






























Interactive Weather Map New forecast layout! Learn more

10-Day Weather Forecast

Advertisements
Track Severe Weather on mobile